Fdny M-8 — WDF9767 — position and weather

sailwx.info

Track history (hours):
 
Tides and Currents Weather Stations Pressure Air Temp Water Temp Dewpoint Dewpoint Depression Visibility Wind Speed Wind Dir Waves Ship Positions

Fdny M-8

Owner: NEW YORK CITY FIRE DEPT, BROOKLYN, NY. More information available from US FCC via Universal Licensing System.

Last reported at 2017-Oct-30 16:30 UTC. Time now 2017-Nov-24 20:39 UTC.
Position N 40°42' W 073°58'.
Warning: this ship's position is 25 days out of date.

Length 11 m.

Type: Law enforcement. MMSI: 367508630.

Date/timePositionNaut miles runAvg speedWind from/ knotsBaromVisibWave heightAir tempDewpointWater temp
2017-Oct-30 16:30N 40°42' W 073°58'  
2017-Oct-27 18:40N 40°42' W 073°58'524.6
2017-Oct-27 18:28N 40°47' W 073°56'6 4.6
2017-Oct-27 17:08N 40°48' W 073°48'0 0.0
2017-Oct-27 16:58N 40°48' W 073°48'0 0.0
2017-Oct-27 16:27N 40°48' W 073°48'919.8
2017-Oct-27 16:00N 40°44' W 073°58'2 4.7
2017-Oct-27 15:30N 40°42' W 073°60'1 2.1
2017-Oct-27 15:00N 40°43' W 073°59'0 0.8
2017-Oct-27 14:30N 40°42' W 073°58'3 6.8
2017-Oct-27 14:00N 40°40' W 074°01'9 0.2
2017-Oct-25 19:21N 40°31' W 074°01'6 5.1
2017-Oct-25 18:16N 40°34' W 073°56'622.7
2017-Oct-25 18:00N 40°37' W 074°03'4 7.2
2017-Oct-25 17:30N 40°40' W 074°01'0 0.8
2017-Oct-25 17:01N 40°40' W 074°02'15 4.2
2017-Oct-25 13:24N 40°25' W 074°02'10 0.2
2017-Oct-23 16:43N 40°35' W 074°04'521.2
2017-Oct-23 16:29N 40°39' W 074°08'6 0.4
2017-Oct-23 00:51N 40°33' W 074°08'9 1.0
2017-Oct-22 15:43N 40°25' W 074°01'1211.0
2017-Oct-22 14:37N 40°31' W 074°15'0 0.0
2017-Oct-22 14:16N 40°31' W 074°15'5 0.6
2017-Oct-22 06:11N 40°33' W 074°08'1 3.0
2017-Oct-22 06:00N 40°32' W 074°08'6 0.6
2017-Oct-21 18:42N 40°29' W 074°01'1 4.1
2017-Oct-21 18:30N 40°29' W 074°00'5 6.7
2017-Oct-21 17:42N 40°32' W 074°07'525.8
2017-Oct-21 17:29N 40°35' W 074°01'1 1.3
2017-Oct-21 16:39N 40°35' W 073°59'210.6
2017-Oct-21 16:30N 40°35' W 074°01'  
Track history (hours):
 
Tides and Currents Weather Stations Pressure Air Temp Water Temp Dewpoint Dewpoint Depression Visibility Wind Speed Wind Dir Waves Ship Positions

Fdny M-8

Owner: NEW YORK CITY FIRE DEPT, BROOKLYN, NY. More information available from US FCC via Universal Licensing System.

Last reported at 2017-Oct-30 16:30 UTC. Time now 2017-Nov-24 20:39 UTC.
Position N 40°42' W 073°58'.
Warning: this ship's position is 25 days out of date.

Length 11 m.

Type: Law enforcement. MMSI: 367508630.

Date/timePositionNaut miles runAvg speedWind from/ knotsBaromVisibWave heightAir tempDewpointWater temp
2017-Oct-30 16:30N 40°42' W 073°58'  
2017-Oct-27 18:40N 40°42' W 073°58'524.6
2017-Oct-27 18:28N 40°47' W 073°56'6 4.6
2017-Oct-27 17:08N 40°48' W 073°48'0 0.0
2017-Oct-27 16:58N 40°48' W 073°48'0 0.0
2017-Oct-27 16:27N 40°48' W 073°48'919.8
2017-Oct-27 16:00N 40°44' W 073°58'2 4.7
2017-Oct-27 15:30N 40°42' W 073°60'1 2.1
2017-Oct-27 15:00N 40°43' W 073°59'0 0.8
2017-Oct-27 14:30N 40°42' W 073°58'3 6.8
2017-Oct-27 14:00N 40°40' W 074°01'9 0.2
2017-Oct-25 19:21N 40°31' W 074°01'6 5.1
2017-Oct-25 18:16N 40°34' W 073°56'622.7
2017-Oct-25 18:00N 40°37' W 074°03'4 7.2
2017-Oct-25 17:30N 40°40' W 074°01'0 0.8
2017-Oct-25 17:01N 40°40' W 074°02'15 4.2
2017-Oct-25 13:24N 40°25' W 074°02'10 0.2
2017-Oct-23 16:43N 40°35' W 074°04'521.2
2017-Oct-23 16:29N 40°39' W 074°08'6 0.4
2017-Oct-23 00:51N 40°33' W 074°08'9 1.0
2017-Oct-22 15:43N 40°25' W 074°01'1211.0
2017-Oct-22 14:37N 40°31' W 074°15'0 0.0
2017-Oct-22 14:16N 40°31' W 074°15'5 0.6
2017-Oct-22 06:11N 40°33' W 074°08'1 3.0
2017-Oct-22 06:00N 40°32' W 074°08'6 0.6
2017-Oct-21 18:42N 40°29' W 074°01'1 4.1
2017-Oct-21 18:30N 40°29' W 074°00'5 6.7
2017-Oct-21 17:42N 40°32' W 074°07'525.8
2017-Oct-21 17:29N 40°35' W 074°01'1 1.3
2017-Oct-21 16:39N 40°35' W 073°59'210.6
2017-Oct-21 16:30N 40°35' W 074°01'  

Dump ship's entire track history